createdAt,value
2022-12-12T00:02:36.566Z,36.00
2022-12-12T00:05:22.191Z,34.38
2022-12-12T00:08:08.011Z,35.75
2022-12-12T00:10:53.671Z,35.85
2022-12-12T00:13:39.778Z,35.42
2022-12-12T00:16:25.915Z,35.88
2022-12-12T00:19:13.271Z,36.17
2022-12-12T00:21:59.432Z,34.30
2022-12-12T00:24:45.304Z,35.97
2022-12-12T00:27:31.757Z,30.73
2022-12-12T00:30:17.270Z,35.97
2022-12-12T00:33:03.207Z,35.20
2022-12-12T00:46:54.257Z,29.15
2022-12-12T00:49:39.847Z,32.55
2022-12-12T00:52:26.813Z,32.80
2022-12-12T00:55:13.421Z,33.75
2022-12-12T01:00:45.034Z,30.35
2022-12-12T01:03:32.371Z,28.25
2022-12-12T01:09:05.330Z,35.33
2022-12-12T01:11:51.499Z,34.38
2022-12-12T01:14:37.265Z,30.52
2022-12-12T01:17:22.979Z,27.70
2022-12-12T01:36:50.566Z,27.08
2022-12-12T01:39:36.212Z,28.30
2022-12-12T01:42:23.374Z,28.33
2022-12-12T01:45:24.444Z,27.40
2022-12-12T01:50:57.941Z,26.58
2022-12-12T01:53:45.432Z,30.30
2022-12-12T01:56:32.343Z,27.60
2022-12-12T01:59:21.633Z,30.88
2022-12-12T02:02:08.536Z,29.80
2022-12-12T02:04:54.747Z,28.37
2022-12-12T02:13:18.613Z,31.60
2022-12-12T02:19:03.561Z,32.30
2022-12-12T07:53:11.945Z,48.38
2022-12-12T07:55:57.374Z,54.47
2022-12-12T07:58:43.741Z,54.95
2022-12-12T08:01:30.579Z,52.47
2022-12-12T08:04:16.407Z,54.35
2022-12-12T08:07:08.086Z,65.57
2022-12-12T08:09:55.892Z,51.20
2022-12-12T08:12:41.895Z,53.28
2022-12-12T08:15:27.567Z,56.00
2022-12-12T08:18:13.209Z,50.95
2022-12-12T08:20:58.938Z,44.42
2022-12-12T08:23:45.257Z,55.92
2022-12-12T08:26:32.659Z,51.78
2022-12-12T08:32:04.937Z,60.47
2022-12-12T08:34:50.578Z,69.95
2022-12-12T08:37:36.685Z,86.25
2022-12-12T12:31:29.955Z,20.00
2022-12-12T12:34:23.523Z,21.90
2022-12-12T12:37:24.598Z,22.65
2022-12-12T12:40:23.065Z,19.85
2022-12-12T12:46:12.763Z,18.92
2022-12-12T12:49:03.152Z,19.00
2022-12-12T12:51:53.114Z,18.35
2022-12-12T13:17:19.151Z,18.90
2022-12-12T13:20:06.241Z,20.25
2022-12-12T13:28:42.351Z,27.00
2022-12-12T13:34:31.196Z,25.07
2022-12-12T13:37:20.454Z,25.75
2022-12-12T13:40:08.240Z,23.60
2022-12-12T13:42:56.972Z,27.20
2022-12-12T13:45:45.234Z,33.38
2022-12-12T13:48:47.008Z,26.00
2022-12-12T14:08:48.922Z,25.33
2022-12-12T14:11:37.156Z,29.65
2022-12-12T14:14:24.887Z,30.73
2022-12-12T14:17:21.393Z,26.40
2022-12-12T14:20:08.802Z,25.48
2022-12-12T14:23:23.426Z,26.20
2022-12-12T14:26:45.497Z,22.90
2022-12-12T14:29:33.876Z,22.52
2022-12-12T14:32:44.368Z,23.30
2022-12-12T14:35:36.672Z,20.13
2022-12-12T14:38:34.301Z,19.95
2022-12-12T14:41:27.887Z,23.80
2022-12-12T14:44:38.182Z,23.90
2022-12-12T14:47:26.086Z,27.27
2022-12-12T14:50:17.210Z,23.00
2022-12-12T14:53:04.085Z,26.98
2022-12-12T14:55:52.761Z,28.70
2022-12-12T14:58:41.792Z,23.95
2022-12-12T15:01:32.833Z,24.33
2022-12-12T15:07:21.950Z,20.23
2022-12-12T15:10:23.388Z,25.05
2022-12-12T15:13:16.128Z,24.15
2022-12-12T15:16:02.292Z,26.10
2022-12-12T15:18:48.117Z,23.88
2022-12-12T15:21:35.851Z,22.60
2022-12-12T15:24:24.098Z,23.30
2022-12-12T15:27:18.592Z,24.48
2022-12-12T15:32:58.983Z,22.65
2022-12-12T15:35:49.808Z,29.98
2022-12-12T15:38:37.126Z,24.08
2022-12-12T15:41:22.721Z,27.33
2022-12-12T15:44:14.810Z,39.67
2022-12-12T15:47:00.855Z,31.25
2022-12-12T15:49:47.122Z,33.17
2022-12-12T15:52:33.422Z,33.83
2022-12-12T15:55:24.571Z,28.40
2022-12-12T15:58:28.944Z,28.15
2022-12-12T16:01:21.739Z,25.67
2022-12-12T16:04:24.421Z,24.10
2022-12-12T16:07:21.112Z,26.10
2022-12-12T16:10:23.017Z,28.98
2022-12-12T16:13:24.272Z,26.85
2022-12-12T16:16:37.282Z,28.85
2022-12-12T16:19:36.070Z,30.08
2022-12-12T16:22:34.493Z,26.52
2022-12-12T16:25:23.743Z,28.02
2022-12-12T16:28:23.248Z,28.40
2022-12-12T16:34:03.335Z,24.70
2022-12-12T16:39:34.913Z,29.70
2022-12-12T16:42:23.979Z,27.88
2022-12-12T16:50:44.765Z,42.88
2022-12-12T16:53:30.706Z,36.42
2022-12-12T16:56:16.522Z,32.05
2022-12-12T16:59:03.451Z,36.78
2022-12-12T17:01:49.054Z,32.10
2022-12-12T17:04:34.677Z,28.85
2022-12-12T17:07:20.584Z,32.47
2022-12-12T17:10:07.151Z,34.22
2022-12-12T17:15:46.567Z,41.25
2022-12-12T17:18:32.871Z,36.28
2022-12-12T17:21:18.732Z,35.35
2022-12-12T17:24:05.189Z,34.53
2022-12-12T17:26:51.075Z,39.25
2022-12-12T17:29:36.629Z,37.03
2022-12-12T17:32:24.638Z,39.55
2022-12-12T17:35:10.858Z,41.47
2022-12-12T17:37:58.078Z,45.22
2022-12-12T17:40:44.253Z,44.05
2022-12-12T17:43:30.045Z,49.10
2022-12-12T17:46:17.466Z,44.30
2022-12-12T17:49:04.814Z,46.20
2022-12-12T17:51:50.468Z,73.82
2022-12-12T17:54:36.034Z,51.15
2022-12-12T17:57:25.363Z,49.22
2022-12-12T18:00:12.471Z,53.70
2022-12-12T18:02:58.054Z,60.35
2022-12-12T18:05:45.036Z,61.33
2022-12-12T18:08:31.152Z,53.30
2022-12-12T18:11:19.129Z,42.88
2022-12-12T18:14:07.797Z,46.85
2022-12-12T18:16:53.967Z,39.03
2022-12-12T18:19:39.672Z,37.97
2022-12-12T18:22:27.140Z,44.15
2022-12-12T18:25:13.282Z,39.45
2022-12-12T18:27:59.113Z,42.45
2022-12-12T18:30:48.213Z,38.28
2022-12-12T18:33:34.653Z,42.78
2022-12-12T18:36:24.217Z,38.08
2022-12-12T18:39:12.176Z,41.90
2022-12-12T18:41:58.050Z,38.22
2022-12-12T18:44:43.848Z,38.05
2022-12-12T18:47:30.200Z,61.17
2022-12-12T18:50:16.732Z,47.38
2022-12-12T18:53:02.347Z,34.47
2022-12-12T18:55:49.724Z,37.78
2022-12-12T18:58:36.520Z,61.22
2022-12-12T19:01:24.655Z,46.42
2022-12-12T19:04:14.182Z,42.70
2022-12-12T19:07:01.934Z,49.13
2022-12-12T21:00:48.710Z,25.80
2022-12-12T21:11:58.121Z,26.00
2022-12-12T21:20:16.427Z,33.30
2022-12-12T21:48:02.168Z,36.00
2022-12-12T21:56:19.733Z,37.60
2022-12-12T22:32:23.378Z,33.65
2022-12-12T22:37:54.813Z,35.30
2022-12-12T22:46:12.088Z,29.35
2022-12-12T23:00:02.027Z,46.35
2022-12-12T23:02:47.401Z,34.08
2022-12-12T23:05:34.580Z,34.17
2022-12-12T23:08:20.424Z,33.40
2022-12-12T23:11:08.595Z,37.08
2022-12-12T23:13:56.145Z,33.53
2022-12-12T23:16:41.905Z,33.90
2022-12-12T23:25:02.434Z,33.63
2022-12-12T23:49:59.495Z,34.60
2022-12-12T23:58:17.678Z,34.30
